East Pharsalia, New York
Current Conditions -  °F | °C
As of 12:55 PM on Sunday 25 Jan 2015 (Local Time) from KN03 Reporting Station
Light Snow Light Snow  
Wind Chill: 13°   Ceiling: 2500
Heat Index: 21°   Visibility: 10mi
Dew Point: 12°   Wind: 7mph
Humidity: 68%   Direction: 290°WNW
Pressure: 29.84"   Gusts: NA
Location:  42.56°N, 75.72°W
Report Text: KN03 251755Z AUTO 29006KT 10SM -SN BKN025 M06/M11 A2984 RMK AO2
Loading
Personal Weather Stations






























Interactive Weather Map New forecast layout! Learn more

10-Day Weather Forecast

Advertisements
Track Severe Weather on mobile